KMDW/MDW METAR and TAF weather

Enter ICAO airport designator
Station Type Date Time Source
KMDW METAR 2020/07/15 01:53 UTC NOAA

KMDW 150153Z 18007KT 10SM SCT180 BKN250 27/17 A2999 RMK AO2 SLP144 T02670167 $


Station Type Date Time Source
KMDW Decoded METAR 2020/07/15 01:53 UTC NOAA

CHICAGO MIDWAY AIRPORT, IL, United States (KMDW) 41-47N 087-45W 188M
Jul 14, 2020 - 09:53 PM EDT / 2020.07.15 0153 UTC
Wind: from the S (180 degrees) at 8 MPH (7 KT):0
Visibility: 10 mile(s):0
Sky conditions: mostly cloudy
Temperature: 80.1 F (26.7 C)
Dew Point: 62.1 F (16.7 C)
Relative Humidity: 54%
Pressure (altimeter): 29.99 in. Hg (1015 hPa)
ob: KMDW 150153Z 18007KT 10SM SCT180 BKN250 27/17 A2999 RMK AO2 SLP144 T02670167
cycle: 2

Station Type Date Time Source
KMDW TAF 2020/07/14 21:59 UTC NOAA

TAF
AMD KMDW 142059Z 1421/1524 18012KT P6SM FEW050 BKN250 PROB30 1521/1524 03010KT 3SM TSRA BKN040CB

Example: see airport list